Latest Weather Observations for Hay Point

IDQ60801

Issued at 5:32 am EST Thursday 28 May 2015 (issued every 30 minutes, with the page automatically refreshed every 10 minutes)

About weather observations | Map of weather stations | Latest weather observations for QLD | Other Formats
Station Details ID: 033317 Name: HAY POINT Lat: -21.29 Lon: 149.30 Height: 7.0 m
Data from the previous 72 hours. | See also: Recent months for locations in Queensland
Date/Time
EST
Temp
°C
App
Temp
°C
Dew
Point
Rel
Hum
%
Delta-T
°C
Wind Press
QNH
hPa
Press
MSL
hPa
Rain
since 9 am
mm
Dir
 
Spd
km/h
Gust
km/h
Spd
kts
Gust
kts
28/05:30am - - - - - SW 17 20 9 11 - - -
28/05:00am - - - - - SSW 17 26 9 14 - - -
28/04:30am - - - - - SSW 20 26 11 14 - - -
28/04:00am - - - - - SSW 22 30 12 16 - - -
28/03:30am - - - - - SSW 20 26 11 14 - - -
28/03:00am - - - - - SSW 24 32 13 17 - - -
28/02:30am - - - - - SSW 24 33 13 18 - - -
28/02:00am - - - - - SSW 22 30 12 16 - - -
28/01:30am - - - - - SSW 19 24 10 13 - - -
28/01:00am - - - - - SSW 20 24 11 13 - - -
28/12:30am - - - - - SSW 19 26 10 14 - - -
28/12:00am - - - - - SSW 13 17 7 9 - - -
 
Date/Time
EST
Temp
°C
App
Temp
°C
Dew
Point
Rel
Hum
%
Delta-T
°C
Wind Press
QNH
hPa
Press
MSL
hPa
Rain
since 9 am
mm
Dir
 
Spd
km/h
Gust
km/h
Spd
kts
Gust
kts
27/11:30pm - - - - - SSW 19 22 10 12 - - -
27/11:00pm - - - - - SSW 13 17 7 9 - - -
27/10:30pm - - - - - SSW 17 19 9 10 - - -
27/10:00pm - - - - - S 17 24 9 13 - - -
27/09:30pm - - - - - SE 19 28 10 15 - - -
27/09:00pm - - - - - SE 17 22 9 12 - - -
27/08:30pm - - - - - SE 19 26 10 14 - - -
27/08:00pm - - - - - SE 22 28 12 15 - - -
27/07:30pm - - - - - SE 20 26 11 14 - - -
27/07:00pm - - - - - SE 20 26 11 14 - - -
27/06:30pm - - - - - SE 17 22 9 12 - - -
27/06:00pm - - - - - S 22 26 12 14 - - -
27/05:30pm - - - - - S 17 26 9 14 - - -
27/05:00pm - - - - - SSE 26 28 14 15 - - -
27/04:30pm - - - - - SSE 26 30 14 16 - - -
27/04:00pm - - - - - SSE 20 28 11 15 - - -
27/03:30pm - - - - - SSE 28 33 15 18 - - -
27/03:00pm - - - - - SSE 30 35 16 19 - - -
27/02:30pm - - - - - SSE 32 35 17 19 - - -
27/02:00pm - - - - - SSE 30 33 16 18 - - -
27/01:30pm - - - - - SSE 32 37 17 20 - - -
27/01:00pm - - - - - SSE 32 37 17 20 - - -
27/12:30pm - - - - - SSE 35 39 19 21 - - -
27/12:00pm - - - - - SSE 37 41 20 22 - - -
27/11:30am - - - - - S 35 41 19 22 - - -
27/11:00am - - - - - S 32 39 17 21 - - -
27/10:30am - - - - - S 35 39 19 21 - - -
27/10:00am - - - - - S 33 39 18 21 - - -
27/09:30am - - - - - S 30 35 16 19 - - -
27/09:00am - - - - - S 24 32 13 17 - - -
27/08:30am - - - - - S 28 35 15 19 - - -
27/08:00am - - - - - SSW 28 35 15 19 - - -
27/07:30am - - - - - SSW 28 33 15 18 - - -
27/07:00am - - - - - SSW 20 26 11 14 - - -
27/06:30am - - - - - SSW 20 26 11 14 - - -
27/06:00am - - - - - SSW 22 28 12 15 - - -
27/05:30am - - - - - SSW 24 30 13 16 - - -
27/05:00am - - - - - SSW 20 24 11 13 - - -
27/04:30am - - - - - SSW 20 24 11 13 - - -
27/04:00am - - - - - SSW 20 26 11 14 - - -
27/03:30am - - - - - SSW 19 24 10 13 - - -
27/03:00am - - - - - SSW 22 32 12 17 - - -
27/02:30am - - - - - SSW 26 32 14 17 - - -
27/02:00am - - - - - SSW 22 30 12 16 - - -
27/01:30am - - - - - SSW 22 28 12 15 - - -
27/01:00am - - - - - S 26 33 14 18 - - -
27/12:30am - - - - - SSE 32 35 17 19 - - -
27/12:00am - - - - - SSE 32 37 17 20 - - -
 
Date/Time
EST
Temp
°C
App
Temp
°C
Dew
Point
Rel
Hum
%
Delta-T
°C
Wind Press
QNH
hPa
Press
MSL
hPa
Rain
since 9 am
mm
Dir
 
Spd
km/h
Gust
km/h
Spd
kts
Gust
kts
26/11:30pm - - - - - S 30 35 16 19 - - -
26/11:00pm - - - - - SSE 32 39 17 21 - - -
26/10:30pm - - - - - SE 32 41 17 22 - - -
26/10:00pm - - - - - SE 33 48 18 26 - - -
26/09:30pm - - - - - SSE 32 39 17 21 - - -
26/09:00pm - - - - - SSE 33 37 18 20 - - -
26/08:30pm - - - - - SSE 33 37 18 20 - - -
26/08:00pm - - - - - SSE 39 46 21 25 - - -
26/07:57pm - - - - - SSE 37 46 20 25 - - -
26/07:30pm - - - - - SSE 24 33 13 18 - - -
26/07:00pm - - - - - S 20 32 11 17 - - -
26/06:30pm - - - - - SSE 26 30 14 16 - - -
26/06:00pm - - - - - S 26 30 14 16 - - -
26/05:30pm - - - - - S 24 32 13 17 - - -
26/05:00pm - - - - - S 28 35 15 19 - - -
26/04:30pm - - - - - SSE 32 35 17 19 - - -
26/04:00pm - - - - - SSE 26 33 14 18 - - -
26/03:30pm - - - - - SSE 32 35 17 19 - - -
26/03:00pm - - - - - SSE 28 33 15 18 - - -
26/02:30pm - - - - - SSE 30 33 16 18 - - -
26/02:00pm - - - - - SSE 32 37 17 20 - - -
26/01:30pm - - - - - SSE 30 37 16 20 - - -
26/01:00pm - - - - - SSE 33 39 18 21 - - -
26/12:30pm - - - - - SSE 33 39 18 21 - - -
26/12:00pm - - - - - S 32 37 17 20 - - -
26/11:30am - - - - - S 33 41 18 22 - - -
26/11:00am - - - - - SSE 37 41 20 22 - - -
26/10:30am - - - - - SSE 37 41 20 22 - - -
26/10:00am - - - - - SSE 39 48 21 26 - - -
26/09:30am - - - - - SSE 35 41 19 22 - - -
26/09:00am - - - - - S 35 44 19 24 - - -
26/08:30am - - - - - S 33 44 18 24 - - -
26/08:00am - - - - - S 30 39 16 21 - - -
26/07:30am - - - - - S 28 39 15 21 - - -
26/07:00am - - - - - SSW 28 33 15 18 - - -
26/06:30am - - - - - S 32 39 17 21 - - -
26/06:00am - - - - - SSW 30 37 16 20 - - -
26/05:30am - - - - - SSW 28 33 15 18 - - -
26/05:00am - - - - - SSW 32 37 17 20 - - -
26/04:30am - - - - - SSW 28 37 15 20 - - -
26/04:00am - - - - - S 30 37 16 20 - - -
26/03:30am - - - - - S 33 44 18 24 - - -
26/03:00am - - - - - SSW 28 39 15 21 - - -
26/02:30am - - - - - SSW 28 33 15 18 - - -
26/02:00am - - - - - SSW 28 41 15 22 - - -
26/01:30am - - - - - SSW 28 33 15 18 - - -
26/01:00am - - - - - SSW 24 32 13 17 - - -
26/12:30am - - - - - SSW 22 30 12 16 - - -
26/12:00am - - - - - S 22 28 12 15 - - -
 
Date/Time
EST
Temp
°C
App
Temp
°C
Dew
Point
Rel
Hum
%
Delta-T
°C
Wind Press
QNH
hPa
Press
MSL
hPa
Rain
since 9 am
mm
Dir
 
Spd
km/h
Gust
km/h
Spd
kts
Gust
kts
25/11:30pm - - - - - S 24 33 13 18 - - -
25/11:00pm - - - - - SSW 24 32 13 17 - - -
25/10:30pm - - - - - SSW 22 30 12 16 - - -
25/10:00pm - - - - - S 24 35 13 19 - - -
25/09:30pm - - - - - SE 22 32 12 17 - - -
25/09:00pm - - - - - SE 26 35 14 19 - - -
25/08:30pm - - - - - SE 24 33 13 18 - - -
25/08:00pm - - - - - SE 28 37 15 20 - - -
25/07:30pm - - - - - SSE 22 30 12 16 - - -
25/07:00pm - - - - - SSE 32 39 17 21 - - -
25/06:30pm - - - - - SE 32 41 17 22 - - -
25/06:00pm - - - - - SE 22 32 12 17 - - -
25/05:30pm - - - - - SSE 37 48 20 26 - - -
25/05:00pm - - - - - SSE 30 35 16 19 - - -
25/04:30pm - - - - - S 30 35 16 19 - - -
25/04:00pm - - - - - S 28 33 15 18 - - -
25/03:30pm - - - - - S 35 41 19 22 - - -
25/03:00pm - - - - - S 30 39 16 21 - - -
25/02:30pm - - - - - S 32 41 17 22 - - -
25/02:00pm - - - - - S 28 35 15 19 - - -
25/01:30pm - - - - - SSE 26 32 14 17 - - -
25/01:00pm - - - - - S 32 39 17 21 - - -
25/12:30pm - - - - - S 33 41 18 22 - - -
25/12:00pm - - - - - S 33 41 18 22 - - -
25/11:30am - - - - - SSE 39 46 21 25 - - -
25/11:00am - - - - - SSE 37 43 20 23 - - -
25/10:30am - - - - - S 37 44 20 24 - - -
25/10:00am - - - - - SSE 43 50 23 27 - - -
25/09:30am - - - - - S 33 43 18 23 - - -
25/09:00am - - - - - S 35 44 19 24 - - -
25/08:30am - - - - - S 33 43 18 23 - - -
25/08:00am - - - - - SSW 32 39 17 21 - - -
25/07:30am - - - - - SSW 26 33 14 18 - - -
25/07:00am - - - - - SSW 28 37 15 20 - - -
25/06:30am - - - - - SSW 30 37 16 20 - - -
25/06:00am - - - - - SSW 26 33 14 18 - - -

Other Formats:

Comma delimited format used in spreadsheet applications
http://www.bom.gov.au/fwo/IDQ60801/IDQ60801.99367.axf

JavaScript Object Notation format (JSON) in row-major order
http://www.bom.gov.au/fwo/IDQ60801/IDQ60801.99367.json